createdAt,value
2023-04-05T00:01:39.145Z,7.66
2023-04-05T00:04:05.946Z,7.62
2023-04-05T00:06:32.561Z,7.60
2023-04-05T00:09:00.028Z,7.58
2023-04-05T00:11:27.534Z,7.56
2023-04-05T00:13:54.083Z,7.48
2023-04-05T00:16:20.892Z,7.43
2023-04-05T00:18:51.569Z,7.40
2023-04-05T00:21:21.939Z,7.37
2023-04-05T00:23:52.914Z,7.36
2023-04-05T00:26:19.958Z,7.33
2023-04-05T00:28:47.381Z,7.29
2023-04-05T00:31:13.900Z,7.26
2023-04-05T00:33:40.978Z,7.26
2023-04-05T00:36:11.446Z,7.23
2023-04-05T00:38:38.586Z,7.23
2023-04-05T00:41:05.134Z,7.22
2023-04-05T00:43:31.734Z,7.22
2023-04-05T00:45:58.458Z,7.21
2023-04-05T00:48:25.470Z,7.19
2023-04-05T00:50:52.435Z,7.16
2023-04-05T00:53:19.576Z,7.15
2023-04-05T00:55:49.955Z,7.14
2023-04-05T00:58:19.323Z,7.10
2023-04-05T01:00:53.334Z,7.07
2023-04-05T01:03:21.043Z,7.05
2023-04-05T01:05:49.624Z,7.03
2023-04-05T01:08:17.762Z,7.01
2023-04-05T01:10:51.398Z,6.98
2023-04-05T01:13:17.960Z,6.95
2023-04-05T01:15:44.619Z,6.93
2023-04-05T01:18:11.941Z,6.91
2023-04-05T01:20:43.099Z,6.88
2023-04-05T01:23:25.290Z,6.88
2023-04-05T01:26:09.903Z,6.85
2023-04-05T01:28:57.733Z,6.79
2023-04-05T01:31:27.422Z,6.78
2023-04-05T01:33:54.005Z,6.77
2023-04-05T01:36:20.637Z,6.75
2023-04-05T01:38:49.148Z,6.73
2023-04-05T01:41:15.913Z,6.69
2023-04-05T01:43:42.563Z,6.66
2023-04-05T01:46:09.105Z,6.64
2023-04-05T01:48:35.731Z,6.62
2023-04-05T01:51:02.299Z,6.61
2023-04-05T01:53:28.792Z,6.59
2023-04-05T01:55:59.718Z,6.56
2023-04-05T01:58:26.286Z,6.51
2023-04-05T02:00:58.733Z,6.48
2023-04-05T02:03:25.481Z,6.44
2023-04-05T02:05:52.191Z,6.39
2023-04-05T02:08:18.812Z,6.36
2023-04-05T02:10:45.868Z,6.35
2023-04-05T02:13:13.865Z,6.30
2023-04-05T02:15:40.647Z,6.26
2023-04-05T02:18:08.116Z,6.23
2023-04-05T02:20:34.819Z,6.19
2023-04-05T02:23:02.022Z,6.14
2023-04-05T02:25:28.611Z,6.10
2023-04-05T02:27:55.173Z,6.07
2023-04-05T02:30:21.722Z,6.07
2023-04-05T02:32:48.381Z,6.04
2023-04-05T02:35:17.357Z,5.96
2023-04-05T02:37:44.089Z,5.92
2023-04-05T02:40:13.609Z,5.90
2023-04-05T02:42:40.297Z,5.87
2023-04-05T02:45:08.486Z,5.84
2023-04-05T02:47:35.083Z,5.84
2023-04-05T02:50:01.657Z,5.81
2023-04-05T02:52:29.294Z,5.82
2023-04-05T02:54:55.835Z,5.79
2023-04-05T02:57:22.434Z,5.77
2023-04-05T02:59:49.039Z,5.74
2023-04-05T03:02:16.261Z,5.72
2023-04-05T03:04:44.963Z,5.71
2023-04-05T03:07:14.491Z,5.70
2023-04-05T03:09:41.073Z,5.70
2023-04-05T03:12:07.679Z,5.68
2023-04-05T03:14:34.490Z,5.66
2023-04-05T03:17:01.301Z,5.66
2023-04-05T03:19:27.852Z,5.67
2023-04-05T03:21:54.463Z,5.68
2023-04-05T03:24:21.405Z,5.66
2023-04-05T03:26:48.914Z,5.69
2023-04-05T03:29:16.763Z,5.64
2023-04-05T03:31:43.548Z,5.66
2023-04-05T03:34:10.103Z,5.62
2023-04-05T03:36:42.922Z,5.62
2023-04-05T03:39:10.453Z,5.63
2023-04-05T03:41:37.575Z,5.66
2023-04-05T03:44:04.289Z,5.68
2023-04-05T03:46:30.961Z,5.66
2023-04-05T03:48:58.022Z,5.65
2023-04-05T03:51:24.945Z,5.64
2023-04-05T03:53:51.488Z,5.65
2023-04-05T03:56:18.059Z,5.67
2023-04-05T03:58:44.906Z,5.68
2023-04-05T04:01:12.306Z,5.66
2023-04-05T04:03:39.166Z,5.64
2023-04-05T04:06:06.641Z,5.66
2023-04-05T04:08:33.788Z,5.67
2023-04-05T04:11:00.421Z,5.67
2023-04-05T04:13:26.974Z,5.68
2023-04-05T04:15:53.580Z,5.71
2023-04-05T04:18:20.351Z,5.73
2023-04-05T04:20:47.847Z,5.77
2023-04-05T04:23:14.545Z,5.80
2023-04-05T04:25:46.090Z,5.84
2023-04-05T04:28:16.809Z,5.89
2023-04-05T04:30:43.568Z,5.97
2023-04-05T04:33:10.264Z,6.03
2023-04-05T04:35:42.769Z,6.10
2023-04-05T04:38:09.528Z,6.14
2023-04-05T04:40:40.041Z,6.14
2023-04-05T04:43:06.643Z,6.09
2023-04-05T04:45:38.100Z,6.09
2023-04-05T04:48:05.224Z,6.09
2023-04-05T04:50:32.390Z,6.12
2023-04-05T04:52:59.315Z,6.09
2023-04-05T04:55:26.241Z,6.05
2023-04-05T04:57:53.646Z,6.09
2023-04-05T05:00:20.716Z,6.17
2023-04-05T05:02:47.529Z,6.25
2023-04-05T05:05:14.164Z,6.25
2023-04-05T05:07:44.391Z,6.28
2023-04-05T05:10:11.575Z,6.22
2023-04-05T05:12:39.229Z,6.22
2023-04-05T05:15:06.068Z,6.24
2023-04-05T05:17:32.677Z,6.24
2023-04-05T05:20:00.473Z,6.26
2023-04-05T05:22:27.458Z,6.27
2023-04-05T05:24:54.247Z,6.28
2023-04-05T05:27:22.230Z,6.26
2023-04-05T05:29:48.905Z,6.34
2023-04-05T05:32:17.076Z,6.22
2023-04-05T05:34:45.074Z,6.14
2023-04-05T05:37:12.598Z,6.11
2023-04-05T05:39:39.294Z,6.15
2023-04-05T05:42:06.378Z,6.17
2023-04-05T05:44:32.946Z,6.21
2023-04-05T05:46:59.535Z,6.27
2023-04-05T05:49:26.205Z,6.34
2023-04-05T05:51:52.943Z,6.40
2023-04-05T05:54:19.864Z,6.48
2023-04-05T05:56:46.435Z,6.58
2023-04-05T05:59:13.094Z,6.69
2023-04-05T06:01:42.883Z,6.67
2023-04-05T06:04:09.854Z,6.69
2023-04-05T06:06:37.895Z,6.78
2023-04-05T06:09:04.596Z,6.90
2023-04-05T06:11:31.162Z,6.97
2023-04-05T06:13:57.889Z,7.00
2023-04-05T06:16:24.479Z,6.98
2023-04-05T06:18:51.217Z,7.03
2023-04-05T06:21:17.788Z,7.13
2023-04-05T06:23:44.427Z,7.22
2023-04-05T06:26:21.716Z,7.25
2023-04-05T06:28:48.444Z,7.29
2023-04-05T06:31:20.790Z,7.31
2023-04-05T06:33:47.341Z,7.39
2023-04-05T06:36:13.953Z,7.42
2023-04-05T06:38:40.532Z,7.50
2023-04-05T06:41:07.064Z,7.53
2023-04-05T06:43:33.692Z,7.52
2023-04-05T06:46:00.715Z,7.58
2023-04-05T06:48:29.309Z,7.69
2023-04-05T06:51:02.929Z,7.83
2023-04-05T06:53:29.561Z,7.98
2023-04-05T06:55:56.863Z,8.08
2023-04-05T06:58:23.967Z,8.18
2023-04-05T07:00:51.073Z,8.18
2023-04-05T07:03:18.478Z,8.16
2023-04-05T07:05:54.997Z,8.14
2023-04-05T07:08:21.512Z,8.18
2023-04-05T07:10:48.420Z,8.18
2023-04-05T07:13:14.978Z,8.20
2023-04-05T07:15:41.870Z,8.18
2023-04-05T07:18:08.861Z,8.20
2023-04-05T07:20:35.476Z,8.25
2023-04-05T07:23:02.422Z,8.30
2023-04-05T07:25:28.971Z,8.20
2023-04-05T07:27:55.518Z,8.20
2023-04-05T07:30:22.047Z,8.28
2023-04-05T07:32:48.637Z,8.32
2023-04-05T07:35:15.457Z,8.39
2023-04-05T07:37:42.051Z,8.46
2023-04-05T07:40:11.349Z,8.57
2023-04-05T07:42:38.886Z,8.63
2023-04-05T07:45:05.803Z,8.67
2023-04-05T07:47:35.663Z,8.82
2023-04-05T07:50:02.514Z,8.87
2023-04-05T07:52:30.517Z,8.94
2023-04-05T07:54:57.070Z,9.02
2023-04-05T07:57:23.769Z,9.18
2023-04-05T07:59:54.835Z,9.33
2023-04-05T08:02:21.404Z,9.42
2023-04-05T08:04:48.060Z,9.52
2023-04-05T08:07:14.702Z,9.52
2023-04-05T08:09:41.411Z,9.65
2023-04-05T08:12:08.095Z,9.83
2023-04-05T08:14:34.604Z,9.79
2023-04-05T08:17:01.259Z,9.78
2023-04-05T08:19:27.970Z,9.80
2023-04-05T08:21:54.517Z,9.87
2023-04-05T08:24:21.163Z,9.95
2023-04-05T08:26:47.744Z,10.02
2023-04-05T08:29:14.258Z,10.10
2023-04-05T08:31:40.877Z,10.16
2023-04-05T08:34:08.552Z,10.17
2023-04-05T08:36:35.118Z,10.27
2023-04-05T08:39:01.694Z,10.48
2023-04-05T08:41:35.321Z,10.64
2023-04-05T08:44:03.103Z,10.85
2023-04-05T08:46:34.427Z,11.00
2023-04-05T08:49:04.962Z,10.93
2023-04-05T08:51:31.759Z,10.85
2023-04-05T08:53:59.404Z,10.80
2023-04-05T08:56:27.789Z,10.80
2023-04-05T08:59:05.265Z,10.86
2023-04-05T09:01:33.587Z,10.94
2023-04-05T09:04:01.805Z,11.03
2023-04-05T09:06:28.836Z,11.16
2023-04-05T09:08:58.735Z,11.24
2023-04-05T09:11:25.750Z,11.26
2023-04-05T09:13:52.406Z,11.22
2023-04-05T09:16:19.728Z,11.30
2023-04-05T09:18:46.339Z,11.31
2023-04-05T09:21:13.013Z,11.44
2023-04-05T09:23:50.895Z,11.64
2023-04-05T09:26:18.361Z,11.84
2023-04-05T09:28:44.912Z,11.78
2023-04-05T09:31:29.237Z,11.80
2023-04-05T09:33:57.764Z,11.81
2023-04-05T09:36:24.378Z,11.80
2023-04-05T09:38:51.258Z,11.88
2023-04-05T09:41:17.813Z,12.01
2023-04-05T09:43:44.392Z,12.09
2023-04-05T09:46:30.259Z,11.91
2023-04-05T09:48:57.428Z,11.85
2023-04-05T09:51:23.997Z,11.84
2023-04-05T09:54:01.847Z,11.92
2023-04-05T09:56:29.338Z,12.00
2023-04-05T09:59:01.472Z,12.12
2023-04-05T10:01:29.089Z,12.29
2023-04-05T10:03:57.409Z,12.58
2023-04-05T10:06:24.275Z,12.78
2023-04-05T10:08:51.592Z,12.71
2023-04-05T10:11:18.469Z,12.77
2023-04-05T10:13:45.487Z,12.68
2023-04-05T10:16:14.278Z,12.77
2023-04-05T10:18:46.528Z,13.02
2023-04-05T10:21:15.713Z,13.22
2023-04-05T10:23:44.769Z,13.18
2023-04-05T10:26:18.795Z,13.55
2023-04-05T10:28:47.930Z,14.41
2023-04-05T10:31:21.090Z,15.03
2023-04-05T10:34:16.507Z,15.70
2023-04-05T10:36:50.652Z,16.35
2023-04-05T10:39:22.113Z,16.70
2023-04-05T10:41:49.384Z,16.85
2023-04-05T10:44:25.827Z,17.18
2023-04-05T10:46:53.694Z,17.86
2023-04-05T10:49:20.192Z,18.56
2023-04-05T10:51:48.079Z,18.86
2023-04-05T10:54:17.218Z,18.87
2023-04-05T10:56:44.215Z,19.04
2023-04-05T10:59:12.331Z,19.17
2023-04-05T11:01:40.600Z,19.13
2023-04-05T11:04:14.467Z,19.36
2023-04-05T11:06:41.525Z,19.38
2023-04-05T11:09:10.940Z,19.56
2023-04-05T11:11:41.284Z,19.81
2023-04-05T11:14:46.574Z,20.19
2023-04-05T11:17:28.862Z,20.07
2023-04-05T11:20:02.953Z,19.81
2023-04-05T11:22:30.088Z,19.58
2023-04-05T11:24:58.115Z,18.75
2023-04-05T11:27:29.226Z,18.49
2023-04-05T11:29:56.510Z,18.40
2023-04-05T11:32:23.532Z,18.29
2023-04-05T11:35:00.319Z,17.54
2023-04-05T11:37:45.700Z,17.28
2023-04-05T11:40:26.001Z,17.66
2023-04-05T11:42:59.385Z,17.93
2023-04-05T11:45:26.419Z,18.48
2023-04-05T11:47:53.078Z,18.84
2023-04-05T11:50:20.642Z,19.12
2023-04-05T11:53:07.122Z,19.73
2023-04-05T11:55:33.697Z,20.44
2023-04-05T11:58:00.573Z,21.21
2023-04-05T12:00:27.129Z,21.68
2023-04-05T12:02:57.236Z,21.82
2023-04-05T12:05:23.890Z,22.22
2023-04-05T12:07:56.579Z,22.40
2023-04-05T12:10:23.148Z,21.44
2023-04-05T12:12:49.762Z,20.35
2023-04-05T12:15:19.038Z,20.16
2023-04-05T12:17:50.285Z,20.02
2023-04-05T12:20:19.503Z,20.38
2023-04-05T12:22:48.721Z,20.62
2023-04-05T12:25:16.502Z,20.50
2023-04-05T12:27:43.190Z,20.15
2023-04-05T12:30:23.417Z,20.19
2023-04-05T12:32:54.194Z,19.92
2023-04-05T12:35:21.984Z,19.84
2023-04-05T12:37:50.766Z,19.72
2023-04-05T12:40:22.030Z,19.92
2023-04-05T12:42:48.877Z,19.84
2023-04-05T12:45:15.623Z,20.01
2023-04-05T12:47:58.671Z,20.33
2023-04-05T12:50:27.642Z,20.82
2023-04-05T12:52:54.853Z,20.76
2023-04-05T12:55:21.658Z,20.66
2023-04-05T12:57:52.279Z,20.60
2023-04-05T13:00:19.414Z,20.95
2023-04-05T13:02:48.883Z,21.08
2023-04-05T13:05:15.558Z,20.90
2023-04-05T13:07:42.125Z,21.10
2023-04-05T13:10:09.027Z,21.29
2023-04-05T13:12:35.571Z,21.26
2023-04-05T13:15:02.284Z,21.50
2023-04-05T13:17:29.151Z,21.68
2023-04-05T13:19:55.876Z,21.13
2023-04-05T13:22:22.743Z,20.78
2023-04-05T13:24:49.343Z,20.52
2023-04-05T13:27:15.951Z,20.96
2023-04-05T13:29:42.552Z,21.02
2023-04-05T13:32:09.111Z,20.71
2023-04-05T13:34:35.662Z,20.73
2023-04-05T13:37:02.290Z,20.89
2023-04-05T13:39:28.904Z,21.20
2023-04-05T13:41:57.263Z,21.23
2023-04-05T13:44:24.028Z,20.66
2023-04-05T13:46:50.980Z,20.02
2023-04-05T13:49:17.581Z,19.90
2023-04-05T13:51:44.151Z,19.55
2023-04-05T13:54:14.041Z,19.85
2023-04-05T13:56:40.658Z,20.34
2023-04-05T13:59:07.562Z,20.58
2023-04-05T14:01:34.387Z,20.68
2023-04-05T14:04:01.171Z,20.70
2023-04-05T14:06:28.169Z,21.02
2023-04-05T14:08:55.392Z,21.37
2023-04-05T14:11:22.806Z,21.61
2023-04-05T14:13:50.042Z,21.50
2023-04-05T14:16:16.783Z,21.12
2023-04-05T14:18:43.428Z,21.13
2023-04-05T14:21:10.592Z,21.06
2023-04-05T14:23:37.266Z,20.81
2023-04-05T14:26:03.977Z,20.71
2023-04-05T14:28:30.610Z,20.72
2023-04-05T14:30:58.913Z,20.60
2023-04-05T14:33:27.141Z,20.39
2023-04-05T14:35:53.915Z,19.97
2023-04-05T14:38:20.682Z,19.72
2023-04-05T14:40:47.310Z,19.67
2023-04-05T14:43:13.896Z,19.24
2023-04-05T14:45:40.799Z,18.64
2023-04-05T14:48:07.471Z,18.09
2023-04-05T14:50:34.212Z,17.16
2023-04-05T14:53:01.609Z,16.70
2023-04-05T14:55:28.676Z,16.50
2023-04-05T14:57:55.403Z,16.40
2023-04-05T15:00:22.063Z,16.14
2023-04-05T15:02:48.827Z,15.92
2023-04-05T15:05:15.650Z,15.64
2023-04-05T15:07:42.258Z,15.50
2023-04-05T15:10:09.208Z,15.39
2023-04-05T15:12:35.914Z,15.21
2023-04-05T15:15:02.555Z,15.04
2023-04-05T15:17:29.996Z,14.92
2023-04-05T15:19:56.714Z,14.76
2023-04-05T15:22:23.544Z,14.56
2023-04-05T15:24:50.239Z,14.41
2023-04-05T15:27:16.869Z,14.12
2023-04-05T15:29:43.485Z,13.89
2023-04-05T15:32:10.298Z,13.73
2023-04-05T15:34:36.895Z,13.53
2023-04-05T15:37:03.512Z,13.47
2023-04-05T15:39:30.370Z,13.48
2023-04-05T15:41:57.901Z,13.41
2023-04-05T15:44:24.561Z,13.30
2023-04-05T15:46:51.279Z,13.04
2023-04-05T15:49:17.974Z,12.75
2023-04-05T15:51:44.948Z,12.69
2023-04-05T15:54:16.644Z,12.75
2023-04-05T15:56:43.229Z,12.77
2023-04-05T15:59:10.060Z,12.51
2023-04-05T16:01:40.100Z,12.25
2023-04-05T16:04:06.951Z,12.01
2023-04-05T16:06:33.574Z,11.85
2023-04-05T16:09:00.937Z,11.73
2023-04-05T16:11:27.827Z,11.59
2023-04-05T16:13:54.489Z,11.48
2023-04-05T16:16:32.574Z,11.38
2023-04-05T16:19:05.368Z,11.26
2023-04-05T16:21:32.086Z,11.19
2023-04-05T16:24:01.141Z,11.15
2023-04-05T16:26:27.828Z,11.04
2023-04-05T16:28:54.744Z,10.95
2023-04-05T16:31:21.743Z,10.81
2023-04-05T16:33:48.449Z,10.71
2023-04-05T16:36:15.166Z,10.65
2023-04-05T16:38:43.505Z,10.63
2023-04-05T16:41:11.153Z,10.59
2023-04-05T16:43:37.824Z,10.55
2023-04-05T16:46:04.529Z,10.47
2023-04-05T16:48:32.605Z,10.48
2023-04-05T16:50:59.200Z,10.38
2023-04-05T16:53:25.783Z,10.33
2023-04-05T16:55:52.347Z,10.27
2023-04-05T16:58:18.987Z,10.25
2023-04-05T17:00:45.571Z,10.26
2023-04-05T17:03:12.317Z,10.21
2023-04-05T17:05:38.978Z,10.12
2023-04-05T17:08:05.645Z,10.09
2023-04-05T17:10:32.239Z,10.03
2023-04-05T17:12:58.868Z,10.01
2023-04-05T17:15:26.312Z,9.97
2023-04-05T17:17:53.037Z,9.95
2023-04-05T17:20:19.727Z,9.96
2023-04-05T17:22:46.295Z,9.89
2023-04-05T17:25:12.902Z,9.88
2023-04-05T17:27:39.478Z,9.87
2023-04-05T17:30:06.452Z,9.87
2023-04-05T17:32:34.799Z,9.83
2023-04-05T17:35:01.794Z,9.81
2023-04-05T17:37:29.511Z,9.79
2023-04-05T17:39:56.254Z,9.81
2023-04-05T17:42:22.841Z,9.83
2023-04-05T17:44:49.548Z,9.86
2023-04-05T17:47:16.346Z,9.87
2023-04-05T17:49:43.099Z,9.84
2023-04-05T17:52:09.807Z,9.82
2023-04-05T17:54:39.466Z,9.81
2023-04-05T17:57:06.517Z,9.80
2023-04-05T17:59:33.229Z,9.83
2023-04-05T18:02:00.212Z,9.80
2023-04-05T18:04:27.260Z,9.77
2023-04-05T18:06:53.885Z,9.77
2023-04-05T18:09:20.778Z,9.75
2023-04-05T18:11:47.454Z,9.73
2023-04-05T18:14:14.109Z,9.73
2023-04-05T18:16:40.762Z,9.71
2023-04-05T18:19:07.771Z,9.68
2023-04-05T18:21:34.492Z,9.67
2023-04-05T18:24:01.308Z,9.67
2023-04-05T18:26:28.642Z,9.65
2023-04-05T18:28:59.813Z,9.58
2023-04-05T18:31:27.189Z,9.54
2023-04-05T18:33:54.003Z,9.52
2023-04-05T18:36:20.761Z,9.48
2023-04-05T18:38:47.600Z,9.45
2023-04-05T18:41:15.261Z,9.44
2023-04-05T18:43:42.113Z,9.39
2023-04-05T18:46:08.876Z,9.33
2023-04-05T18:48:38.818Z,9.27
2023-04-05T18:51:06.187Z,9.19
2023-04-05T18:53:32.931Z,9.13
2023-04-05T18:55:59.536Z,9.08
2023-04-05T18:58:26.181Z,9.02
2023-04-05T19:00:52.864Z,8.97
2023-04-05T19:03:19.801Z,8.93
2023-04-05T19:05:53.555Z,8.89
2023-04-05T19:08:20.302Z,8.84
2023-04-05T19:10:46.919Z,8.78
2023-04-05T19:13:13.524Z,8.75
2023-04-05T19:15:40.276Z,8.68
2023-04-05T19:18:06.908Z,8.63
2023-04-05T19:20:33.554Z,8.57
2023-04-05T19:23:00.271Z,8.53
2023-04-05T19:25:27.391Z,8.49
2023-04-05T19:27:55.107Z,8.44
2023-04-05T19:30:21.806Z,8.39
2023-04-05T19:32:49.104Z,8.34
2023-04-05T19:35:16.239Z,8.31
2023-04-05T19:37:42.858Z,8.26
2023-04-05T19:40:09.991Z,8.21
2023-04-05T19:42:36.686Z,8.15
2023-04-05T19:45:07.565Z,8.09
2023-04-05T19:47:35.584Z,8.05
2023-04-05T19:50:02.303Z,7.99
2023-04-05T19:52:47.706Z,7.95
2023-04-05T19:55:32.986Z,7.89
2023-04-05T19:58:00.927Z,7.83
2023-04-05T20:00:35.777Z,7.78
2023-04-05T20:03:02.855Z,7.73
2023-04-05T20:05:55.605Z,7.71
2023-04-05T20:08:22.188Z,7.66
2023-04-05T20:10:52.106Z,7.61
2023-04-05T20:13:19.630Z,7.57
2023-04-05T20:15:47.218Z,7.53
2023-04-05T20:18:18.424Z,7.48
2023-04-05T20:20:45.779Z,7.45
2023-04-05T20:23:12.420Z,7.40
2023-04-05T20:25:42.774Z,7.37
2023-04-05T20:28:26.791Z,7.33
2023-04-05T20:30:53.905Z,7.30
2023-04-05T20:33:34.325Z,7.27
2023-04-05T20:36:01.199Z,7.23
2023-04-05T20:38:27.833Z,7.19
2023-04-05T20:40:54.380Z,7.13
2023-04-05T20:43:21.052Z,7.08
2023-04-05T20:45:47.841Z,7.05
2023-04-05T20:48:14.502Z,7.00
2023-04-05T20:50:41.257Z,6.94
2023-04-05T20:53:07.838Z,6.91
2023-04-05T20:55:34.407Z,6.87
2023-04-05T20:58:01.049Z,6.83
2023-04-05T21:00:29.556Z,6.81
2023-04-05T21:02:56.448Z,6.78
2023-04-05T21:05:23.081Z,6.75
2023-04-05T21:07:49.740Z,6.73
2023-04-05T21:10:16.349Z,6.70
2023-04-05T21:12:42.890Z,6.65
2023-04-05T21:15:09.784Z,6.61
2023-04-05T21:17:36.653Z,6.59
2023-04-05T21:20:03.365Z,6.57
2023-04-05T21:22:30.213Z,6.52
2023-04-05T21:24:56.775Z,6.51
2023-04-05T21:27:24.157Z,6.47
2023-04-05T21:29:50.735Z,6.43
2023-04-05T21:32:17.286Z,6.39
2023-04-05T21:34:43.851Z,6.35
2023-04-05T21:37:10.685Z,6.30
2023-04-05T21:39:37.248Z,6.27
2023-04-05T21:42:03.910Z,6.25
2023-04-05T21:44:30.473Z,6.22
2023-04-05T21:46:57.706Z,6.19
2023-04-05T21:49:24.321Z,6.13
2023-04-05T21:51:50.974Z,6.10
2023-04-05T21:54:17.519Z,6.04
2023-04-05T21:56:44.156Z,6.03
2023-04-05T21:59:11.020Z,6.00
2023-04-05T22:01:37.826Z,5.98
2023-04-05T22:04:04.462Z,5.96
2023-04-05T22:06:31.067Z,5.95
2023-04-05T22:08:57.620Z,5.92
2023-04-05T22:11:25.062Z,5.90
2023-04-05T22:13:51.981Z,5.86
2023-04-05T22:16:18.603Z,5.85
2023-04-05T22:18:46.251Z,5.82
2023-04-05T22:21:12.895Z,5.81
2023-04-05T22:23:41.747Z,5.79
2023-04-05T22:26:09.386Z,5.78
2023-04-05T22:28:36.044Z,5.76
2023-04-05T22:31:02.630Z,5.72
2023-04-05T22:33:29.229Z,5.70
2023-04-05T22:35:56.153Z,5.68
2023-04-05T22:38:22.763Z,5.66
2023-04-05T22:40:49.386Z,5.64
2023-04-05T22:43:16.145Z,5.63
2023-04-05T22:45:42.895Z,5.60
2023-04-05T22:48:09.595Z,5.62
2023-04-05T22:50:36.260Z,5.61
2023-04-05T22:53:02.792Z,5.59
2023-04-05T22:55:29.541Z,5.58
2023-04-05T22:57:56.145Z,5.54
2023-04-05T23:00:22.755Z,5.54
2023-04-05T23:02:49.448Z,5.54
2023-04-05T23:05:16.039Z,5.55
2023-04-05T23:07:42.700Z,5.55
2023-04-05T23:10:09.656Z,5.55
2023-04-05T23:12:36.229Z,5.54
2023-04-05T23:15:02.869Z,5.52
2023-04-05T23:17:29.764Z,5.51
2023-04-05T23:19:56.449Z,5.52
2023-04-05T23:22:23.075Z,5.50
2023-04-05T23:24:49.662Z,5.50
2023-04-05T23:27:16.315Z,5.48
2023-04-05T23:29:42.897Z,5.46
2023-04-05T23:32:12.822Z,5.45
2023-04-05T23:34:39.585Z,5.45
2023-04-05T23:37:06.132Z,5.43
2023-04-05T23:39:32.756Z,5.43
2023-04-05T23:41:59.315Z,5.40
2023-04-05T23:44:25.905Z,5.42
2023-04-05T23:46:52.645Z,5.40
2023-04-05T23:49:21.092Z,5.38
2023-04-05T23:51:47.654Z,5.36
2023-04-05T23:54:14.186Z,5.33
2023-04-05T23:56:41.144Z,5.32
2023-04-05T23:59:08.135Z,5.29
